createdAt,value
2023-04-10T00:02:16.950Z,9.08
2023-04-10T00:04:49.861Z,8.95
2023-04-10T00:07:22.495Z,8.99
2023-04-10T00:09:55.191Z,9.07
2023-04-10T00:12:27.895Z,9.03
2023-04-10T00:15:00.442Z,9.03
2023-04-10T00:17:33.054Z,9.08
2023-04-10T00:20:06.772Z,9.04
2023-04-10T00:22:42.919Z,8.98
2023-04-10T00:25:15.730Z,9.04
2023-04-10T00:27:48.418Z,8.99
2023-04-10T00:30:21.594Z,9.09
2023-04-10T00:32:54.248Z,9.01
2023-04-10T00:35:26.914Z,9.02
2023-04-10T00:37:59.474Z,8.94
2023-04-10T00:40:32.095Z,9.00
2023-04-10T00:43:04.869Z,8.92
2023-04-10T00:45:40.788Z,8.96
2023-04-10T00:48:13.423Z,8.92
2023-04-10T00:50:47.436Z,8.89
2023-04-10T00:53:20.532Z,8.82
2023-04-10T00:55:54.195Z,8.78
2023-04-10T00:58:26.863Z,8.76
2023-04-10T01:00:59.479Z,8.72
2023-04-10T01:03:32.295Z,8.67
2023-04-10T01:06:23.822Z,8.67
2023-04-10T01:09:16.703Z,8.55
2023-04-10T01:11:59.796Z,8.76
2023-04-10T01:15:04.540Z,8.73
2023-04-10T01:17:56.209Z,8.69
2023-04-10T01:20:37.710Z,8.73
2023-04-10T01:23:31.690Z,8.57
2023-04-10T01:26:08.709Z,8.54
2023-04-10T01:28:57.060Z,8.62
2023-04-10T01:31:53.760Z,8.56
2023-04-10T01:34:35.368Z,8.48
2023-04-10T01:37:31.055Z,8.47
2023-04-10T01:40:08.284Z,8.40
2023-04-10T01:42:57.488Z,8.40
2023-04-10T01:45:30.080Z,8.37
2023-04-10T01:48:02.763Z,8.31
2023-04-10T01:50:36.288Z,8.29
2023-04-10T01:53:10.174Z,8.27
2023-04-10T01:55:43.710Z,8.23
2023-04-10T01:58:16.573Z,8.25
2023-04-10T02:00:49.304Z,8.14
2023-04-10T02:03:22.020Z,8.14
2023-04-10T02:06:50.455Z,8.18
2023-04-10T02:09:43.091Z,8.17
2023-04-10T02:12:39.042Z,8.13
2023-04-10T02:15:12.859Z,8.12
2023-04-10T02:17:47.023Z,8.10
2023-04-10T02:20:20.207Z,8.13
2023-04-10T02:22:54.167Z,8.13
2023-04-10T02:25:26.941Z,8.07
2023-04-10T02:28:07.912Z,8.18
2023-04-10T02:30:40.428Z,8.12
2023-04-10T02:33:12.964Z,8.06
2023-04-10T02:35:45.538Z,8.19
2023-04-10T02:38:18.146Z,8.08
2023-04-10T02:40:50.694Z,8.10
2023-04-10T02:43:23.365Z,8.24
2023-04-10T02:45:55.918Z,8.16
2023-04-10T02:48:28.653Z,8.15
2023-04-10T02:51:01.269Z,8.23
2023-04-10T02:53:34.316Z,8.29
2023-04-10T02:56:08.083Z,8.30
2023-04-10T02:58:45.409Z,8.23
2023-04-10T03:01:17.954Z,8.07
2023-04-10T03:03:50.681Z,8.13
2023-04-10T03:06:27.141Z,8.07
2023-04-10T03:08:59.828Z,8.12
2023-04-10T03:11:32.356Z,8.15
2023-04-10T03:14:05.350Z,8.07
2023-04-10T03:16:38.015Z,7.98
2023-04-10T03:19:12.602Z,7.87
2023-04-10T03:21:46.838Z,7.88
2023-04-10T03:24:19.351Z,7.90
2023-04-10T03:26:52.021Z,7.89
2023-04-10T03:29:24.674Z,7.75
2023-04-10T03:31:57.186Z,7.79
2023-04-10T03:34:30.242Z,7.69
2023-04-10T03:37:03.342Z,7.70
2023-04-10T03:39:37.248Z,7.71
2023-04-10T03:42:09.774Z,7.65
2023-04-10T03:44:42.328Z,7.69
2023-04-10T03:47:14.841Z,7.68
2023-04-10T03:49:47.482Z,7.53
2023-04-10T03:52:20.993Z,7.50
2023-04-10T03:54:54.662Z,7.48
2023-04-10T03:57:27.278Z,7.50
2023-04-10T03:59:59.873Z,7.51
2023-04-10T04:02:32.426Z,7.48
2023-04-10T04:05:05.607Z,7.48
2023-04-10T04:07:38.208Z,7.38
2023-04-10T04:10:11.047Z,7.35
2023-04-10T04:12:43.569Z,7.32
2023-04-10T04:15:16.464Z,7.43
2023-04-10T04:17:49.077Z,7.27
2023-04-10T04:20:21.714Z,7.19
2023-04-10T04:22:54.216Z,7.32
2023-04-10T04:25:27.188Z,7.37
2023-04-10T04:27:59.689Z,7.34
2023-04-10T04:30:32.462Z,7.28
2023-04-10T04:33:05.016Z,7.37
2023-04-10T04:35:37.665Z,7.33
2023-04-10T04:38:10.406Z,7.36
2023-04-10T04:40:43.258Z,7.39
2023-04-10T04:43:15.974Z,7.27
2023-04-10T04:45:48.534Z,7.32
2023-04-10T04:48:21.090Z,7.35
2023-04-10T04:50:53.607Z,7.41
2023-04-10T04:53:26.163Z,7.43
2023-04-10T04:55:58.805Z,7.42
2023-04-10T04:58:31.380Z,7.35
2023-04-10T05:01:04.205Z,7.45
2023-04-10T05:03:36.883Z,7.40
2023-04-10T05:06:09.540Z,7.42
2023-04-10T05:08:42.091Z,7.41
2023-04-10T05:11:14.707Z,7.36
2023-04-10T05:13:47.327Z,7.34
2023-04-10T05:16:19.997Z,7.30
2023-04-10T05:18:53.090Z,7.39
2023-04-10T05:21:26.054Z,7.37
2023-04-10T05:23:58.576Z,7.27
2023-04-10T05:26:31.128Z,7.48
2023-04-10T05:29:04.230Z,7.56
2023-04-10T05:31:36.884Z,7.70
2023-04-10T05:34:09.543Z,7.71
2023-04-10T05:36:42.115Z,7.83
2023-04-10T05:39:15.767Z,7.82
2023-04-10T05:41:48.288Z,7.95
2023-04-10T05:44:20.882Z,7.90
2023-04-10T05:46:53.548Z,8.02
2023-04-10T05:49:26.203Z,8.17
2023-04-10T05:51:58.735Z,8.34
2023-04-10T05:54:31.430Z,8.33
2023-04-10T05:57:04.150Z,8.62
2023-04-10T05:59:36.681Z,8.71
2023-04-10T06:02:09.290Z,8.82
2023-04-10T06:04:42.519Z,8.85
2023-04-10T06:07:15.228Z,8.91
2023-04-10T06:09:47.758Z,9.01
2023-04-10T06:12:20.589Z,9.04
2023-04-10T06:14:53.195Z,9.08
2023-04-10T06:17:25.966Z,9.26
2023-04-10T06:20:01.018Z,9.38
2023-04-10T06:22:33.524Z,9.49
2023-04-10T06:25:07.297Z,9.37
2023-04-10T06:27:40.745Z,9.50
2023-04-10T06:30:13.255Z,9.53
2023-04-10T06:32:46.152Z,9.60
2023-04-10T06:35:18.812Z,9.79
2023-04-10T06:37:51.320Z,9.65
2023-04-10T06:40:23.822Z,9.89
2023-04-10T06:42:56.957Z,9.92
2023-04-10T06:45:30.667Z,10.06
2023-04-10T06:48:03.343Z,10.15
2023-04-10T06:50:35.914Z,10.20
2023-04-10T06:53:08.472Z,10.28
2023-04-10T06:55:41.026Z,10.42
2023-04-10T06:58:13.506Z,10.47
2023-04-10T07:00:46.461Z,10.48
2023-04-10T07:03:19.006Z,10.59
2023-04-10T07:05:51.571Z,10.38
2023-04-10T07:08:24.286Z,10.64
2023-04-10T07:10:58.643Z,10.60
2023-04-10T07:13:31.567Z,10.68
2023-04-10T07:16:04.718Z,10.65
2023-04-10T07:18:38.573Z,10.78
2023-04-10T07:21:14.641Z,10.73
2023-04-10T07:23:47.390Z,10.88
2023-04-10T07:26:19.909Z,11.01
2023-04-10T07:28:53.111Z,10.96
2023-04-10T07:31:25.955Z,11.02
2023-04-10T07:33:58.507Z,11.16
2023-04-10T07:36:31.862Z,11.42
2023-04-10T07:39:04.477Z,11.29
2023-04-10T07:41:36.984Z,11.26
2023-04-10T07:44:09.600Z,11.49
2023-04-10T07:46:42.416Z,11.67
2023-04-10T07:49:14.962Z,11.50
2023-04-10T07:51:47.477Z,11.52
2023-04-10T07:54:19.983Z,11.79
2023-04-10T07:56:53.250Z,12.10
2023-04-10T07:59:28.514Z,12.39
2023-04-10T08:02:01.138Z,12.56
2023-04-10T08:04:34.185Z,12.76
2023-04-10T08:07:06.886Z,12.94
2023-04-10T08:09:39.384Z,13.08
2023-04-10T08:12:11.918Z,13.26
2023-04-10T08:14:45.220Z,13.43
2023-04-10T08:17:17.769Z,13.33
2023-04-10T08:19:50.372Z,13.29
2023-04-10T08:22:22.921Z,13.26
2023-04-10T08:24:55.590Z,13.47
2023-04-10T08:27:28.585Z,13.57
2023-04-10T08:30:01.172Z,13.15
2023-04-10T08:32:33.827Z,13.70
2023-04-10T08:35:06.890Z,13.48
2023-04-10T08:37:39.541Z,13.85
2023-04-10T08:40:12.393Z,14.17
2023-04-10T08:42:44.961Z,14.51
2023-04-10T08:45:17.529Z,14.24
2023-04-10T08:47:53.191Z,14.47
2023-04-10T08:50:26.438Z,14.71
2023-04-10T08:53:11.639Z,14.35
2023-04-10T08:55:45.933Z,14.38
2023-04-10T08:58:18.769Z,14.54
2023-04-10T09:00:51.597Z,14.47
2023-04-10T09:03:25.636Z,14.44
2023-04-10T09:06:06.542Z,14.47
2023-04-10T09:08:39.099Z,14.25
2023-04-10T09:11:13.141Z,14.54
2023-04-10T09:13:46.274Z,14.45
2023-04-10T09:16:30.466Z,14.70
2023-04-10T09:19:05.104Z,14.95
2023-04-10T09:21:39.158Z,15.22
2023-04-10T09:24:13.169Z,15.11
2023-04-10T09:26:45.682Z,15.39
2023-04-10T09:29:19.191Z,15.26
2023-04-10T09:31:52.060Z,15.21
2023-04-10T09:34:24.582Z,14.81
2023-04-10T09:37:01.240Z,15.05
2023-04-10T09:39:36.873Z,15.23
2023-04-10T09:42:11.507Z,15.24
2023-04-10T09:44:44.149Z,15.20
2023-04-10T09:47:21.359Z,15.22
2023-04-10T09:49:57.171Z,15.32
2023-04-10T09:52:32.242Z,15.51
2023-04-10T09:55:10.210Z,15.64
2023-04-10T09:57:44.967Z,15.72
2023-04-10T10:00:18.040Z,15.73
2023-04-10T10:02:52.522Z,15.96
2023-04-10T10:05:30.456Z,15.86
2023-04-10T10:08:03.092Z,16.29
2023-04-10T10:10:41.795Z,16.08
2023-04-10T10:13:28.181Z,16.54
2023-04-10T10:16:34.841Z,16.30
2023-04-10T10:19:22.087Z,16.88
2023-04-10T10:21:56.091Z,16.78
2023-04-10T10:24:33.323Z,16.47
2023-04-10T10:27:09.908Z,16.91
2023-04-10T10:29:45.871Z,16.84
2023-04-10T10:32:20.717Z,17.20
2023-04-10T10:34:54.275Z,17.48
2023-04-10T10:37:29.944Z,17.82
2023-04-10T10:40:16.637Z,17.43
2023-04-10T10:43:14.992Z,17.89
2023-04-10T10:46:17.766Z,17.84
2023-04-10T10:48:58.849Z,17.56
2023-04-10T10:51:50.601Z,16.80
2023-04-10T10:54:34.728Z,17.46
2023-04-10T10:57:46.794Z,17.24
2023-04-10T11:00:24.925Z,17.61
2023-04-10T11:03:10.675Z,17.77
2023-04-10T11:06:02.817Z,17.89
2023-04-10T11:08:49.608Z,17.73
2023-04-10T11:11:28.408Z,17.86
2023-04-10T11:14:01.108Z,18.17
2023-04-10T11:16:34.746Z,18.36
2023-04-10T11:22:10.598Z,18.45
2023-04-10T11:25:01.940Z,18.51
2023-04-10T11:27:47.820Z,18.95
2023-04-10T11:30:34.885Z,19.04
2023-04-10T11:33:07.709Z,18.69
2023-04-10T11:35:40.549Z,18.94
2023-04-10T11:38:16.986Z,19.05
2023-04-10T11:40:59.636Z,19.21
2023-04-10T11:43:33.829Z,19.38
2023-04-10T11:46:08.097Z,19.14
2023-04-10T11:48:41.070Z,19.14
2023-04-10T11:51:14.725Z,19.26
2023-04-10T11:53:47.306Z,19.11
2023-04-10T11:56:22.055Z,19.34
2023-04-10T11:58:55.309Z,19.41
2023-04-10T12:01:28.287Z,19.16
2023-04-10T12:04:01.869Z,19.27
2023-04-10T12:06:35.592Z,19.24
2023-04-10T12:09:20.230Z,19.17
2023-04-10T12:11:55.987Z,18.70
2023-04-10T12:14:41.800Z,19.13
2023-04-10T12:17:14.553Z,18.68
2023-04-10T12:19:47.229Z,18.73
2023-04-10T12:22:20.860Z,18.47
2023-04-10T12:24:53.713Z,18.58
2023-04-10T12:27:28.859Z,18.75
2023-04-10T12:30:08.600Z,18.85
2023-04-10T12:32:41.182Z,18.82
2023-04-10T12:35:13.803Z,18.97
2023-04-10T12:37:54.537Z,18.40
2023-04-10T12:40:27.644Z,18.54
2023-04-10T12:43:00.239Z,18.38
2023-04-10T12:45:45.529Z,18.60
2023-04-10T12:48:24.462Z,18.53
2023-04-10T12:50:57.180Z,18.48
2023-04-10T12:53:30.312Z,18.67
2023-04-10T12:56:06.527Z,18.31
2023-04-10T12:58:42.383Z,18.50
2023-04-10T13:01:15.037Z,18.21
2023-04-10T13:03:49.058Z,17.82
2023-04-10T13:06:21.790Z,17.80
2023-04-10T13:08:56.079Z,17.72
2023-04-10T13:11:28.827Z,17.56
2023-04-10T13:14:01.382Z,17.57
2023-04-10T13:16:34.738Z,17.70
2023-04-10T13:19:07.316Z,17.46
2023-04-10T13:21:41.258Z,17.40
2023-04-10T13:24:16.018Z,17.63
2023-04-10T13:26:49.092Z,17.94
2023-04-10T13:29:21.648Z,17.51
2023-04-10T13:31:54.339Z,17.55
2023-04-10T13:34:26.961Z,17.35
2023-04-10T13:37:00.217Z,17.47
2023-04-10T13:39:32.853Z,17.63
2023-04-10T13:42:05.575Z,17.84
2023-04-10T13:44:38.139Z,17.73
2023-04-10T13:47:10.795Z,17.71
2023-04-10T13:49:43.980Z,17.75
2023-04-10T13:52:16.516Z,17.80
2023-04-10T13:54:49.050Z,17.56
2023-04-10T13:57:21.616Z,17.92
2023-04-10T13:59:54.209Z,17.88
2023-04-10T14:02:27.007Z,17.76
2023-04-10T14:04:59.635Z,17.50
2023-04-10T14:07:33.200Z,17.59
2023-04-10T14:10:07.418Z,17.50
2023-04-10T14:12:40.344Z,17.43
2023-04-10T14:15:12.850Z,17.34
2023-04-10T14:17:45.729Z,17.07
2023-04-10T14:20:18.287Z,17.10
2023-04-10T14:22:53.627Z,17.10
2023-04-10T14:25:26.188Z,16.66
2023-04-10T14:27:59.341Z,16.61
2023-04-10T14:30:32.948Z,16.41
2023-04-10T14:33:05.735Z,16.32
2023-04-10T14:35:38.321Z,15.86
2023-04-10T14:38:11.169Z,15.65
2023-04-10T14:40:45.778Z,15.45
2023-04-10T14:43:19.313Z,15.70
2023-04-10T14:45:51.882Z,15.47
2023-04-10T14:48:24.821Z,15.28
2023-04-10T14:50:58.997Z,15.06
2023-04-10T14:53:31.554Z,14.93
2023-04-10T14:56:15.501Z,15.11
2023-04-10T14:58:48.120Z,15.10
2023-04-10T15:01:20.707Z,15.01
2023-04-10T15:03:53.721Z,15.18
2023-04-10T15:06:28.033Z,15.20
2023-04-10T15:09:01.044Z,15.24
2023-04-10T15:11:33.582Z,15.52
2023-04-10T15:14:07.386Z,15.64
2023-04-10T15:16:41.459Z,15.65
2023-04-10T15:19:14.133Z,15.49
2023-04-10T15:21:47.107Z,15.51
2023-04-10T15:24:19.702Z,15.58
2023-04-10T15:26:53.633Z,15.71
2023-04-10T15:29:26.192Z,15.67
2023-04-10T15:32:01.642Z,15.32
2023-04-10T15:34:34.247Z,15.70
2023-04-10T15:37:07.974Z,15.60
2023-04-10T15:39:43.459Z,15.49
2023-04-10T15:42:16.851Z,15.59
2023-04-10T15:44:52.452Z,15.67
2023-04-10T15:47:25.028Z,15.73
2023-04-10T15:49:59.958Z,15.63
2023-04-10T15:52:33.801Z,15.35
2023-04-10T15:55:09.390Z,15.57
2023-04-10T15:57:42.012Z,15.37
2023-04-10T16:00:15.222Z,15.27
2023-04-10T16:02:47.878Z,15.21
2023-04-10T16:05:20.647Z,15.17
2023-04-10T16:07:55.251Z,15.11
2023-04-10T16:10:27.791Z,15.06
2023-04-10T16:13:04.166Z,15.07
2023-04-10T16:15:38.694Z,15.11
2023-04-10T16:18:11.289Z,15.22
2023-04-10T16:20:44.252Z,14.95
2023-04-10T16:23:16.827Z,14.95
2023-04-10T16:25:49.406Z,14.86
2023-04-10T16:28:22.921Z,14.97
2023-04-10T16:30:56.818Z,14.72
2023-04-10T16:33:30.683Z,14.42
2023-04-10T16:36:04.745Z,14.38
2023-04-10T16:38:37.323Z,14.15
2023-04-10T16:41:10.263Z,14.13
2023-04-10T16:43:42.941Z,13.68
2023-04-10T16:46:15.607Z,13.43
2023-04-10T16:48:48.178Z,13.17
2023-04-10T16:51:20.723Z,12.82
2023-04-10T16:53:53.580Z,12.63
2023-04-10T16:56:26.393Z,12.76
2023-04-10T16:58:59.041Z,12.56
2023-04-10T17:01:31.691Z,12.39
2023-04-10T17:04:04.327Z,12.19
2023-04-10T17:06:36.905Z,11.98
2023-04-10T17:09:09.392Z,11.93
2023-04-10T17:11:42.346Z,11.96
2023-04-10T17:14:15.980Z,11.68
2023-04-10T17:16:48.484Z,11.60
2023-04-10T17:19:21.033Z,11.80
2023-04-10T17:21:54.426Z,11.75
2023-04-10T17:24:27.280Z,11.67
2023-04-10T17:27:00.973Z,11.59
2023-04-10T17:29:40.447Z,11.67
2023-04-10T17:32:13.151Z,11.45
2023-04-10T17:34:46.496Z,11.31
2023-04-10T17:37:19.763Z,11.46
2023-04-10T17:39:54.223Z,11.33
2023-04-10T17:42:27.270Z,11.42
2023-04-10T17:44:59.831Z,11.38
2023-04-10T17:47:32.403Z,11.49
2023-04-10T17:50:05.812Z,11.41
2023-04-10T17:52:38.514Z,11.48
2023-04-10T17:55:11.322Z,11.48
2023-04-10T17:57:43.842Z,11.48
2023-04-10T18:00:20.022Z,11.29
2023-04-10T18:02:58.312Z,11.37
2023-04-10T18:05:31.009Z,11.44
2023-04-10T18:08:03.900Z,11.52
2023-04-10T18:10:36.463Z,11.42
2023-04-10T18:13:09.037Z,11.26
2023-04-10T18:15:41.504Z,11.32
2023-04-10T18:18:14.188Z,11.48
2023-04-10T18:20:46.864Z,11.58
2023-04-10T18:23:19.426Z,11.56
2023-04-10T18:25:55.718Z,11.30
2023-04-10T18:28:28.361Z,11.34
2023-04-10T18:31:01.113Z,11.26
2023-04-10T18:33:34.030Z,11.30
2023-04-10T18:36:07.465Z,11.22
2023-04-10T18:38:42.736Z,11.08
2023-04-10T18:41:15.493Z,11.19
2023-04-10T18:43:57.407Z,11.21
2023-04-10T18:46:34.308Z,11.07
2023-04-10T18:49:07.630Z,11.20
2023-04-10T18:51:40.863Z,11.17
2023-04-10T18:54:13.490Z,11.19
2023-04-10T18:56:46.256Z,11.17
2023-04-10T18:59:18.765Z,10.93
2023-04-10T19:01:51.432Z,11.03
2023-04-10T19:04:24.594Z,11.09
2023-04-10T19:06:57.537Z,11.21
2023-04-10T19:09:30.166Z,11.09
2023-04-10T19:12:03.100Z,11.16
2023-04-10T19:14:42.991Z,11.08
2023-04-10T19:17:15.899Z,11.04
2023-04-10T19:19:51.044Z,10.94
2023-04-10T19:22:29.630Z,10.88
2023-04-10T19:25:02.432Z,10.90
2023-04-10T19:27:35.227Z,10.83
2023-04-10T19:30:08.780Z,10.86
2023-04-10T19:32:44.619Z,10.69
2023-04-10T19:35:17.260Z,10.83
2023-04-10T19:37:51.886Z,10.94
2023-04-10T19:40:24.527Z,10.74
2023-04-10T19:43:01.184Z,10.71
2023-04-10T19:45:44.712Z,10.64
2023-04-10T19:48:31.433Z,10.64
2023-04-10T19:51:13.938Z,10.71
2023-04-10T19:53:46.817Z,10.87
2023-04-10T19:56:23.319Z,10.66
2023-04-10T19:58:56.471Z,10.85
2023-04-10T20:01:31.957Z,10.60
2023-04-10T20:04:25.261Z,10.74
2023-04-10T20:07:09.480Z,10.71
2023-04-10T20:09:53.309Z,10.71
2023-04-10T20:12:30.147Z,10.69
2023-04-10T20:15:10.029Z,10.58
2023-04-10T20:17:44.244Z,10.68
2023-04-10T20:20:24.500Z,10.58
2023-04-10T20:22:59.904Z,10.47
2023-04-10T20:25:35.064Z,10.49
2023-04-10T20:28:11.168Z,10.55
2023-04-10T20:30:47.345Z,10.52
2023-04-10T20:33:20.037Z,10.35
2023-04-10T20:35:55.767Z,10.43
2023-04-10T20:38:31.453Z,10.30
2023-04-10T20:41:06.394Z,10.40
2023-04-10T20:43:39.057Z,10.37
2023-04-10T20:46:11.709Z,10.29
2023-04-10T20:48:47.266Z,10.24
2023-04-10T20:51:19.844Z,10.22
2023-04-10T20:53:52.616Z,10.15
2023-04-10T20:56:33.087Z,10.13
2023-04-10T20:59:15.453Z,10.11
2023-04-10T21:01:48.332Z,9.96
2023-04-10T21:04:21.132Z,10.14
2023-04-10T21:06:53.826Z,9.96
2023-04-10T21:09:42.310Z,9.99
2023-04-10T21:12:32.664Z,9.89
2023-04-10T21:15:13.399Z,9.98
2023-04-10T21:17:47.557Z,9.80
2023-04-10T21:20:22.152Z,9.77
2023-04-10T21:22:54.666Z,9.94
2023-04-10T21:25:28.084Z,10.05
2023-04-10T21:28:01.790Z,9.95
2023-04-10T21:30:34.346Z,9.76
2023-04-10T21:33:06.926Z,9.79
2023-04-10T21:35:43.651Z,9.81
2023-04-10T21:38:16.249Z,9.92
2023-04-10T21:40:55.594Z,9.77
2023-04-10T21:43:28.086Z,9.66
2023-04-10T21:46:02.807Z,9.70
2023-04-10T21:48:35.689Z,9.76
2023-04-10T21:51:12.458Z,9.75
2023-04-10T21:53:45.131Z,9.67
2023-04-10T21:56:18.907Z,9.63
2023-04-10T21:58:52.945Z,9.76
2023-04-10T22:01:26.217Z,9.67
2023-04-10T22:04:01.331Z,9.69
2023-04-10T22:06:34.018Z,9.66
2023-04-10T22:09:09.356Z,9.69
2023-04-10T22:11:42.009Z,9.70
2023-04-10T22:14:20.051Z,9.62
2023-04-10T22:16:54.115Z,9.87
2023-04-10T22:19:29.419Z,9.85
2023-04-10T22:22:03.262Z,9.95
2023-04-10T22:24:38.515Z,9.97
2023-04-10T22:27:11.192Z,9.94
2023-04-10T22:29:47.686Z,9.98
2023-04-10T22:32:25.760Z,10.11
2023-04-10T22:34:59.885Z,10.16
2023-04-10T22:37:33.132Z,10.04
2023-04-10T22:40:06.754Z,10.04
2023-04-10T22:42:39.319Z,10.29
2023-04-10T22:45:12.918Z,10.22
2023-04-10T22:47:45.553Z,10.31
2023-04-10T22:50:18.412Z,10.02
2023-04-10T22:52:51.204Z,10.18
2023-04-10T22:55:23.952Z,9.89
2023-04-10T22:57:56.537Z,9.94
2023-04-10T23:00:34.221Z,10.11
2023-04-10T23:03:06.933Z,10.03
2023-04-10T23:05:42.587Z,9.94
2023-04-10T23:08:15.368Z,9.86
2023-04-10T23:10:47.854Z,9.98
2023-04-10T23:13:20.563Z,9.78
2023-04-10T23:15:55.136Z,9.92
2023-04-10T23:18:27.710Z,9.79
2023-04-10T23:21:06.599Z,9.81
2023-04-10T23:23:39.107Z,9.74
2023-04-10T23:26:11.686Z,9.83
2023-04-10T23:28:44.211Z,9.76
2023-04-10T23:31:17.301Z,10.00
2023-04-10T23:33:49.857Z,9.71
2023-04-10T23:36:22.328Z,9.76
2023-04-10T23:38:55.586Z,9.57
2023-04-10T23:41:28.216Z,9.53
2023-04-10T23:44:00.790Z,9.47
2023-04-10T23:46:33.398Z,9.51
2023-04-10T23:49:05.938Z,9.52
2023-04-10T23:51:38.510Z,9.65
2023-04-10T23:54:14.126Z,9.57
2023-04-10T23:56:46.638Z,9.48
2023-04-10T23:59:19.221Z,9.74
